sensor_id;sensor_type;location;lat;lon;timestamp;temperature;humidity
24164;DHT22;12319;49.204;8.116;2023-04-06T00:00:39;4.30;51.60
24164;DHT22;12319;49.204;8.116;2023-04-06T00:03:05;4.30;51.60
24164;DHT22;12319;49.204;8.116;2023-04-06T00:05:31;4.30;51.50
24164;DHT22;12319;49.204;8.116;2023-04-06T00:07:59;4.30;51.60
24164;DHT22;12319;49.204;8.116;2023-04-06T00:10:25;4.30;51.60
24164;DHT22;12319;49.204;8.116;2023-04-06T00:12:51;4.20;51.50
24164;DHT22;12319;49.204;8.116;2023-04-06T00:15:17;4.20;51.50
24164;DHT22;12319;49.204;8.116;2023-04-06T00:17:42;4.20;51.50
24164;DHT22;12319;49.204;8.116;2023-04-06T00:20:08;4.20;51.50
24164;DHT22;12319;49.204;8.116;2023-04-06T00:22:34;4.20;51.80
24164;DHT22;12319;49.204;8.116;2023-04-06T00:24:59;4.10;51.90
24164;DHT22;12319;49.204;8.116;2023-04-06T00:27:25;4.10;52.00
24164;DHT22;12319;49.204;8.116;2023-04-06T00:29:50;4.10;51.90
24164;DHT22;12319;49.204;8.116;2023-04-06T00:32:16;4.10;51.90
24164;DHT22;12319;49.204;8.116;2023-04-06T00:34:42;4.00;52.10
24164;DHT22;12319;49.204;8.116;2023-04-06T00:37:07;4.10;52.20
24164;DHT22;12319;49.204;8.116;2023-04-06T00:39:33;4.00;52.20
24164;DHT22;12319;49.204;8.116;2023-04-06T00:41:58;4.00;52.10
24164;DHT22;12319;49.204;8.116;2023-04-06T00:44:24;4.00;52.20
24164;DHT22;12319;49.204;8.116;2023-04-06T00:46:50;4.00;52.30
24164;DHT22;12319;49.204;8.116;2023-04-06T00:49:15;4.00;52.40
24164;DHT22;12319;49.204;8.116;2023-04-06T00:51:41;3.90;52.60
24164;DHT22;12319;49.204;8.116;2023-04-06T00:54:06;3.90;52.50
24164;DHT22;12319;49.204;8.116;2023-04-06T00:56:32;3.90;52.60
24164;DHT22;12319;49.204;8.116;2023-04-06T00:58:58;3.90;52.50
24164;DHT22;12319;49.204;8.116;2023-04-06T01:01:24;3.80;52.40
24164;DHT22;12319;49.204;8.116;2023-04-06T01:03:49;3.80;52.50
24164;DHT22;12319;49.204;8.116;2023-04-06T01:06:15;3.80;52.50
24164;DHT22;12319;49.204;8.116;2023-04-06T01:08:41;3.80;52.40
24164;DHT22;12319;49.204;8.116;2023-04-06T01:11:07;3.70;52.50
24164;DHT22;12319;49.204;8.116;2023-04-06T01:13:32;3.70;52.70
24164;DHT22;12319;49.204;8.116;2023-04-06T01:15:58;3.70;52.80
24164;DHT22;12319;49.204;8.116;2023-04-06T01:18:27;3.70;52.90
24164;DHT22;12319;49.204;8.116;2023-04-06T01:20:53;3.70;53.00
24164;DHT22;12319;49.204;8.116;2023-04-06T01:23:19;3.70;53.00
24164;DHT22;12319;49.204;8.116;2023-04-06T01:25:45;3.60;53.00
24164;DHT22;12319;49.204;8.116;2023-04-06T01:28:10;3.60;53.10
24164;DHT22;12319;49.204;8.116;2023-04-06T01:30:36;3.60;53.00
24164;DHT22;12319;49.204;8.116;2023-04-06T01:33:02;3.50;53.00
24164;DHT22;12319;49.204;8.116;2023-04-06T01:35:28;3.50;53.10
24164;DHT22;12319;49.204;8.116;2023-04-06T01:37:53;3.50;53.10
24164;DHT22;12319;49.204;8.116;2023-04-06T01:40:19;3.50;53.20
24164;DHT22;12319;49.204;8.116;2023-04-06T01:42:44;3.50;53.30
24164;DHT22;12319;49.204;8.116;2023-04-06T01:45:10;3.50;53.20
24164;DHT22;12319;49.204;8.116;2023-04-06T01:47:36;3.50;53.30
24164;DHT22;12319;49.204;8.116;2023-04-06T01:50:02;3.50;53.30
24164;DHT22;12319;49.204;8.116;2023-04-06T01:52:30;3.50;53.40
24164;DHT22;12319;49.204;8.116;2023-04-06T01:54:56;3.50;53.40
24164;DHT22;12319;49.204;8.116;2023-04-06T01:57:21;3.40;53.40
24164;DHT22;12319;49.204;8.116;2023-04-06T01:59:47;3.40;53.40
24164;DHT22;12319;49.204;8.116;2023-04-06T02:02:12;3.50;53.60
24164;DHT22;12319;49.204;8.116;2023-04-06T02:04:38;3.40;53.60
24164;DHT22;12319;49.204;8.116;2023-04-06T02:07:04;3.40;53.80
24164;DHT22;12319;49.204;8.116;2023-04-06T02:09:29;3.40;53.90
24164;DHT22;12319;49.204;8.116;2023-04-06T02:11:55;3.40;53.90
24164;DHT22;12319;49.204;8.116;2023-04-06T02:14:21;3.30;53.90
24164;DHT22;12319;49.204;8.116;2023-04-06T02:16:46;3.30;53.90
24164;DHT22;12319;49.204;8.116;2023-04-06T02:19:12;3.30;53.90
24164;DHT22;12319;49.204;8.116;2023-04-06T02:21:37;3.30;53.90
24164;DHT22;12319;49.204;8.116;2023-04-06T02:24:03;3.30;53.90
24164;DHT22;12319;49.204;8.116;2023-04-06T02:26:29;3.30;53.90
24164;DHT22;12319;49.204;8.116;2023-04-06T02:28:54;3.20;53.80
24164;DHT22;12319;49.204;8.116;2023-04-06T02:31:20;3.20;54.50
24164;DHT22;12319;49.204;8.116;2023-04-06T02:33:46;3.10;54.30
24164;DHT22;12319;49.204;8.116;2023-04-06T02:36:11;3.00;54.30
24164;DHT22;12319;49.204;8.116;2023-04-06T02:38:37;2.90;54.30
24164;DHT22;12319;49.204;8.116;2023-04-06T02:41:02;2.90;54.60
24164;DHT22;12319;49.204;8.116;2023-04-06T02:43:28;2.90;54.90
24164;DHT22;12319;49.204;8.116;2023-04-06T02:45:53;2.90;55.00
24164;DHT22;12319;49.204;8.116;2023-04-06T02:48:18;2.90;55.10
24164;DHT22;12319;49.204;8.116;2023-04-06T02:50:44;2.90;55.10
24164;DHT22;12319;49.204;8.116;2023-04-06T02:53:10;2.80;55.10
24164;DHT22;12319;49.204;8.116;2023-04-06T02:55:35;2.80;55.00
24164;DHT22;12319;49.204;8.116;2023-04-06T02:58:01;2.80;55.00
24164;DHT22;12319;49.204;8.116;2023-04-06T03:00:26;2.80;55.00
24164;DHT22;12319;49.204;8.116;2023-04-06T03:02:52;2.80;55.10
24164;DHT22;12319;49.204;8.116;2023-04-06T03:05:17;2.80;55.30
24164;DHT22;12319;49.204;8.116;2023-04-06T03:07:43;2.80;55.30
24164;DHT22;12319;49.204;8.116;2023-04-06T03:10:09;2.80;55.40
24164;DHT22;12319;49.204;8.116;2023-04-06T03:12:35;2.80;55.40
24164;DHT22;12319;49.204;8.116;2023-04-06T03:15:00;2.80;55.40
24164;DHT22;12319;49.204;8.116;2023-04-06T03:17:26;2.80;55.50
24164;DHT22;12319;49.204;8.116;2023-04-06T03:19:51;2.80;55.60
24164;DHT22;12319;49.204;8.116;2023-04-06T03:22:17;2.80;55.80
24164;DHT22;12319;49.204;8.116;2023-04-06T03:24:42;2.80;55.80
24164;DHT22;12319;49.204;8.116;2023-04-06T03:27:09;2.80;55.80
24164;DHT22;12319;49.204;8.116;2023-04-06T03:29:34;2.80;55.80
24164;DHT22;12319;49.204;8.116;2023-04-06T03:32:01;2.80;55.80
24164;DHT22;12319;49.204;8.116;2023-04-06T03:34:26;2.80;55.80
24164;DHT22;12319;49.204;8.116;2023-04-06T03:36:52;2.70;55.70
24164;DHT22;12319;49.204;8.116;2023-04-06T03:39:17;2.70;55.90
24164;DHT22;12319;49.204;8.116;2023-04-06T03:41:43;2.70;56.00
24164;DHT22;12319;49.204;8.116;2023-04-06T03:44:10;2.70;56.00
24164;DHT22;12319;49.204;8.116;2023-04-06T03:46:35;2.60;56.10
24164;DHT22;12319;49.204;8.116;2023-04-06T03:49:01;2.60;56.40
24164;DHT22;12319;49.204;8.116;2023-04-06T03:51:27;2.50;56.30
24164;DHT22;12319;49.204;8.116;2023-04-06T03:53:53;2.50;56.30
24164;DHT22;12319;49.204;8.116;2023-04-06T03:56:18;2.50;56.50
24164;DHT22;12319;49.204;8.116;2023-04-06T03:58:44;2.50;56.60
24164;DHT22;12319;49.204;8.116;2023-04-06T04:01:16;2.50;56.50
24164;DHT22;12319;49.204;8.116;2023-04-06T04:03:42;2.50;56.50
24164;DHT22;12319;49.204;8.116;2023-04-06T04:06:07;2.50;56.60
24164;DHT22;12319;49.204;8.116;2023-04-06T04:08:33;2.50;56.70
24164;DHT22;12319;49.204;8.116;2023-04-06T04:10:59;2.50;56.70
24164;DHT22;12319;49.204;8.116;2023-04-06T04:13:25;2.50;56.80
24164;DHT22;12319;49.204;8.116;2023-04-06T04:15:50;2.40;56.70
24164;DHT22;12319;49.204;8.116;2023-04-06T04:18:16;2.40;56.80
24164;DHT22;12319;49.204;8.116;2023-04-06T04:20:41;2.40;56.80
24164;DHT22;12319;49.204;8.116;2023-04-06T04:23:07;2.40;56.70
24164;DHT22;12319;49.204;8.116;2023-04-06T04:25:32;2.40;56.80
24164;DHT22;12319;49.204;8.116;2023-04-06T04:27:58;2.30;56.70
24164;DHT22;12319;49.204;8.116;2023-04-06T04:30:23;2.30;56.90
24164;DHT22;12319;49.204;8.116;2023-04-06T04:32:49;2.20;56.60
24164;DHT22;12319;49.204;8.116;2023-04-06T04:35:15;2.20;56.90
24164;DHT22;12319;49.204;8.116;2023-04-06T04:37:41;2.20;57.20
24164;DHT22;12319;49.204;8.116;2023-04-06T04:40:07;2.10;57.10
24164;DHT22;12319;49.204;8.116;2023-04-06T04:42:33;2.10;57.40
24164;DHT22;12319;49.204;8.116;2023-04-06T04:44:59;2.20;57.60
24164;DHT22;12319;49.204;8.116;2023-04-06T04:47:25;2.10;57.50
24164;DHT22;12319;49.204;8.116;2023-04-06T04:49:51;2.10;57.50
24164;DHT22;12319;49.204;8.116;2023-04-06T04:52:16;2.10;57.70
24164;DHT22;12319;49.204;8.116;2023-04-06T04:54:41;2.20;57.80
24164;DHT22;12319;49.204;8.116;2023-04-06T04:57:07;2.20;57.90
24164;DHT22;12319;49.204;8.116;2023-04-06T04:59:34;2.20;58.20
24164;DHT22;12319;49.204;8.116;2023-04-06T05:01:59;2.20;58.40
24164;DHT22;12319;49.204;8.116;2023-04-06T05:04:25;2.10;57.50
24164;DHT22;12319;49.204;8.116;2023-04-06T05:07:05;2.10;57.90
24164;DHT22;12319;49.204;8.116;2023-04-06T05:09:31;2.10;57.80
24164;DHT22;12319;49.204;8.116;2023-04-06T05:11:57;2.10;58.10
24164;DHT22;12319;49.204;8.116;2023-04-06T05:14:23;2.10;58.20
24164;DHT22;12319;49.204;8.116;2023-04-06T05:16:49;2.10;58.40
24164;DHT22;12319;49.204;8.116;2023-04-06T05:19:15;2.80;59.00
24164;DHT22;12319;49.204;8.116;2023-04-06T05:21:41;2.30;58.30
24164;DHT22;12319;49.204;8.116;2023-04-06T05:24:07;2.30;58.10
24164;DHT22;12319;49.204;8.116;2023-04-06T05:26:35;2.40;58.10
24164;DHT22;12319;49.204;8.116;2023-04-06T05:29:00;2.40;58.00
24164;DHT22;12319;49.204;8.116;2023-04-06T05:31:26;2.50;58.00
24164;DHT22;12319;49.204;8.116;2023-04-06T05:33:52;2.60;57.90
24164;DHT22;12319;49.204;8.116;2023-04-06T05:36:17;2.70;58.00
24164;DHT22;12319;49.204;8.116;2023-04-06T05:38:43;2.80;57.90
24164;DHT22;12319;49.204;8.116;2023-04-06T05:41:08;2.90;57.70
24164;DHT22;12319;49.204;8.116;2023-04-06T05:43:34;2.90;57.60
24164;DHT22;12319;49.204;8.116;2023-04-06T05:46:00;3.00;57.70
24164;DHT22;12319;49.204;8.116;2023-04-06T05:48:25;3.10;57.70
24164;DHT22;12319;49.204;8.116;2023-04-06T05:50:51;3.20;57.80
24164;DHT22;12319;49.204;8.116;2023-04-06T05:53:17;3.30;57.60
24164;DHT22;12319;49.204;8.116;2023-04-06T05:55:42;3.30;57.50
24164;DHT22;12319;49.204;8.116;2023-04-06T05:58:08;3.40;57.40
24164;DHT22;12319;49.204;8.116;2023-04-06T06:00:34;3.50;57.50
24164;DHT22;12319;49.204;8.116;2023-04-06T06:02:59;3.50;57.40
24164;DHT22;12319;49.204;8.116;2023-04-06T06:05:25;3.70;57.30
24164;DHT22;12319;49.204;8.116;2023-04-06T06:07:51;3.70;57.30
24164;DHT22;12319;49.204;8.116;2023-04-06T06:10:17;3.80;57.50
24164;DHT22;12319;49.204;8.116;2023-04-06T06:12:42;3.90;57.50
24164;DHT22;12319;49.204;8.116;2023-04-06T06:15:08;4.00;57.30
24164;DHT22;12319;49.204;8.116;2023-04-06T06:17:34;4.10;57.20
24164;DHT22;12319;49.204;8.116;2023-04-06T06:19:59;4.20;57.00
24164;DHT22;12319;49.204;8.116;2023-04-06T06:22:25;4.50;56.50
24164;DHT22;12319;49.204;8.116;2023-04-06T06:24:50;4.50;56.90
24164;DHT22;12319;49.204;8.116;2023-04-06T06:27:16;4.50;56.60
24164;DHT22;12319;49.204;8.116;2023-04-06T06:29:41;4.70;56.60
24164;DHT22;12319;49.204;8.116;2023-04-06T06:32:07;4.80;56.50
24164;DHT22;12319;49.204;8.116;2023-04-06T06:34:34;4.90;56.30
24164;DHT22;12319;49.204;8.116;2023-04-06T06:37:00;5.00;56.80
24164;DHT22;12319;49.204;8.116;2023-04-06T06:39:27;5.10;56.00
24164;DHT22;12319;49.204;8.116;2023-04-06T06:41:53;5.30;55.60
24164;DHT22;12319;49.204;8.116;2023-04-06T06:44:20;5.40;55.70
24164;DHT22;12319;49.204;8.116;2023-04-06T06:46:47;5.50;55.80
24164;DHT22;12319;49.204;8.116;2023-04-06T06:49:12;5.60;55.50
24164;DHT22;12319;49.204;8.116;2023-04-06T06:51:39;5.80;55.30
24164;DHT22;12319;49.204;8.116;2023-04-06T06:54:05;5.90;55.00
24164;DHT22;12319;49.204;8.116;2023-04-06T06:56:31;6.00;54.90
24164;DHT22;12319;49.204;8.116;2023-04-06T06:58:56;6.20;54.60
24164;DHT22;12319;49.204;8.116;2023-04-06T07:01:22;6.40;54.50
24164;DHT22;12319;49.204;8.116;2023-04-06T07:03:47;6.60;54.50
24164;DHT22;12319;49.204;8.116;2023-04-06T07:06:13;6.90;54.50
24164;DHT22;12319;49.204;8.116;2023-04-06T07:08:38;7.50;54.80
24164;DHT22;12319;49.204;8.116;2023-04-06T07:11:04;8.90;55.60
24164;DHT22;12319;49.204;8.116;2023-04-06T07:13:30;11.20;53.60
24164;DHT22;12319;49.204;8.116;2023-04-06T07:15:55;13.50;51.60
24164;DHT22;12319;49.204;8.116;2023-04-06T07:18:21;15.70;47.30
24164;DHT22;12319;49.204;8.116;2023-04-06T07:20:47;17.70;45.40
24164;DHT22;12319;49.204;8.116;2023-04-06T07:23:13;19.40;42.50
24164;DHT22;12319;49.204;8.116;2023-04-06T07:25:38;20.90;42.10
24164;DHT22;12319;49.204;8.116;2023-04-06T07:28:04;22.20;40.70
24164;DHT22;12319;49.204;8.116;2023-04-06T07:30:30;23.30;40.40
24164;DHT22;12319;49.204;8.116;2023-04-06T07:32:56;24.20;40.40
24164;DHT22;12319;49.204;8.116;2023-04-06T07:35:23;25.00;40.10
24164;DHT22;12319;49.204;8.116;2023-04-06T07:37:49;25.80;38.20
24164;DHT22;12319;49.204;8.116;2023-04-06T07:40:15;26.40;37.10
24164;DHT22;12319;49.204;8.116;2023-04-06T07:42:41;26.80;35.80
24164;DHT22;12319;49.204;8.116;2023-04-06T07:45:06;27.20;37.10
24164;DHT22;12319;49.204;8.116;2023-04-06T07:47:33;27.80;37.50
24164;DHT22;12319;49.204;8.116;2023-04-06T07:49:58;28.30;37.20
24164;DHT22;12319;49.204;8.116;2023-04-06T07:52:24;28.90;35.90
24164;DHT22;12319;49.204;8.116;2023-04-06T07:54:49;29.50;34.00
24164;DHT22;12319;49.204;8.116;2023-04-06T07:57:15;29.80;31.20
24164;DHT22;12319;49.204;8.116;2023-04-06T07:59:41;30.00;31.50
24164;DHT22;12319;49.204;8.116;2023-04-06T08:02:06;30.10;31.50
24164;DHT22;12319;49.204;8.116;2023-04-06T08:04:32;30.30;32.30
24164;DHT22;12319;49.204;8.116;2023-04-06T08:06:58;30.60;28.40
24164;DHT22;12319;49.204;8.116;2023-04-06T08:09:23;30.80;31.90
24164;DHT22;12319;49.204;8.116;2023-04-06T08:11:49;30.90;32.00
24164;DHT22;12319;49.204;8.116;2023-04-06T08:14:15;31.30;32.50
24164;DHT22;12319;49.204;8.116;2023-04-06T08:16:41;31.70;32.30
24164;DHT22;12319;49.204;8.116;2023-04-06T08:19:07;32.00;30.00
24164;DHT22;12319;49.204;8.116;2023-04-06T08:21:35;32.30;29.90
24164;DHT22;12319;49.204;8.116;2023-04-06T08:24:01;32.30;28.60
24164;DHT22;12319;49.204;8.116;2023-04-06T08:26:26;32.20;29.30
24164;DHT22;12319;49.204;8.116;2023-04-06T08:28:52;32.30;27.90
24164;DHT22;12319;49.204;8.116;2023-04-06T08:31:18;32.20;27.20
24164;DHT22;12319;49.204;8.116;2023-04-06T08:33:43;32.00;26.50
24164;DHT22;12319;49.204;8.116;2023-04-06T08:36:10;31.70;26.10
24164;DHT22;12319;49.204;8.116;2023-04-06T08:38:36;31.60;28.50
24164;DHT22;12319;49.204;8.116;2023-04-06T08:41:12;31.80;25.70
24164;DHT22;12319;49.204;8.116;2023-04-06T08:43:47;31.80;26.10
24164;DHT22;12319;49.204;8.116;2023-04-06T08:46:14;31.80;27.60
24164;DHT22;12319;49.204;8.116;2023-04-06T08:48:41;31.90;27.70
24164;DHT22;12319;49.204;8.116;2023-04-06T08:51:08;32.00;28.30
24164;DHT22;12319;49.204;8.116;2023-04-06T08:53:34;32.10;27.90
24164;DHT22;12319;49.204;8.116;2023-04-06T08:56:00;32.10;26.40
24164;DHT22;12319;49.204;8.116;2023-04-06T08:58:28;32.00;26.50
24164;DHT22;12319;49.204;8.116;2023-04-06T09:00:56;31.90;26.20
24164;DHT22;12319;49.204;8.116;2023-04-06T09:03:22;31.70;26.10
24164;DHT22;12319;49.204;8.116;2023-04-06T09:05:49;31.50;25.60
24164;DHT22;12319;49.204;8.116;2023-04-06T09:08:15;31.00;25.50
24164;DHT22;12319;49.204;8.116;2023-04-06T09:10:41;30.50;26.30
24164;DHT22;12319;49.204;8.116;2023-04-06T09:13:07;30.10;26.50
24164;DHT22;12319;49.204;8.116;2023-04-06T09:15:34;29.80;26.20
24164;DHT22;12319;49.204;8.116;2023-04-06T09:17:59;29.10;25.50
24164;DHT22;12319;49.204;8.116;2023-04-06T09:20:26;27.70;25.80
24164;DHT22;12319;49.204;8.116;2023-04-06T09:22:54;26.00;26.30
24164;DHT22;12319;49.204;8.116;2023-04-06T09:25:22;24.40;27.70
24164;DHT22;12319;49.204;8.116;2023-04-06T09:28:04;23.10;28.20
24164;DHT22;12319;49.204;8.116;2023-04-06T09:30:30;21.70;29.00
24164;DHT22;12319;49.204;8.116;2023-04-06T09:32:56;20.90;29.70
24164;DHT22;12319;49.204;8.116;2023-04-06T09:35:23;20.00;30.00
24164;DHT22;12319;49.204;8.116;2023-04-06T09:37:50;19.30;30.30
24164;DHT22;12319;49.204;8.116;2023-04-06T09:40:17;18.80;30.50
24164;DHT22;12319;49.204;8.116;2023-04-06T09:42:48;18.30;31.00
24164;DHT22;12319;49.204;8.116;2023-04-06T09:45:15;17.90;31.20
24164;DHT22;12319;49.204;8.116;2023-04-06T09:47:43;17.60;31.80
24164;DHT22;12319;49.204;8.116;2023-04-06T09:50:11;17.30;32.40
24164;DHT22;12319;49.204;8.116;2023-04-06T09:52:41;17.10;32.90
24164;DHT22;12319;49.204;8.116;2023-04-06T09:55:07;16.80;32.60
24164;DHT22;12319;49.204;8.116;2023-04-06T09:57:52;16.80;32.90
24164;DHT22;12319;49.204;8.116;2023-04-06T10:00:22;16.60;33.40
24164;DHT22;12319;49.204;8.116;2023-04-06T10:03:21;16.60;32.50
24164;DHT22;12319;49.204;8.116;2023-04-06T10:05:58;16.50;32.40
24164;DHT22;12319;49.204;8.116;2023-04-06T10:08:27;16.40;32.00
24164;DHT22;12319;49.204;8.116;2023-04-06T10:10:54;16.40;32.80
24164;DHT22;12319;49.204;8.116;2023-04-06T10:13:20;16.20;33.00
24164;DHT22;12319;49.204;8.116;2023-04-06T10:15:46;16.20;33.00
24164;DHT22;12319;49.204;8.116;2023-04-06T10:18:12;16.20;32.70
24164;DHT22;12319;49.204;8.116;2023-04-06T10:20:51;16.20;32.10
24164;DHT22;12319;49.204;8.116;2023-04-06T10:23:41;16.20;31.90
24164;DHT22;12319;49.204;8.116;2023-04-06T10:26:16;16.20;32.40
24164;DHT22;12319;49.204;8.116;2023-04-06T10:28:43;16.20;32.10
24164;DHT22;12319;49.204;8.116;2023-04-06T10:31:09;16.20;32.00
24164;DHT22;12319;49.204;8.116;2023-04-06T10:33:35;16.30;32.40
24164;DHT22;12319;49.204;8.116;2023-04-06T10:36:14;16.30;32.10
24164;DHT22;12319;49.204;8.116;2023-04-06T10:38:41;16.40;32.30
24164;DHT22;12319;49.204;8.116;2023-04-06T10:41:09;16.50;31.20
24164;DHT22;12319;49.204;8.116;2023-04-06T10:43:36;16.60;31.50
24164;DHT22;12319;49.204;8.116;2023-04-06T10:46:03;16.60;31.60
24164;DHT22;12319;49.204;8.116;2023-04-06T10:48:43;16.80;31.80
24164;DHT22;12319;49.204;8.116;2023-04-06T10:51:13;16.90;31.20
24164;DHT22;12319;49.204;8.116;2023-04-06T10:53:44;17.00;31.20
24164;DHT22;12319;49.204;8.116;2023-04-06T10:56:13;17.00;30.20
24164;DHT22;12319;49.204;8.116;2023-04-06T10:58:46;16.90;30.10
24164;DHT22;12319;49.204;8.116;2023-04-06T11:01:12;17.00;30.60
24164;DHT22;12319;49.204;8.116;2023-04-06T11:03:47;17.00;30.40
24164;DHT22;12319;49.204;8.116;2023-04-06T11:06:21;17.00;30.30
24164;DHT22;12319;49.204;8.116;2023-04-06T11:08:47;17.10;31.00
24164;DHT22;12319;49.204;8.116;2023-04-06T11:11:14;17.10;30.00
24164;DHT22;12319;49.204;8.116;2023-04-06T11:16:14;17.20;29.60
24164;DHT22;12319;49.204;8.116;2023-04-06T11:21:13;17.20;29.00
24164;DHT22;12319;49.204;8.116;2023-04-06T11:23:38;17.30;29.80
24164;DHT22;12319;49.204;8.116;2023-04-06T11:26:04;17.30;29.70
24164;DHT22;12319;49.204;8.116;2023-04-06T11:28:29;17.40;29.90
24164;DHT22;12319;49.204;8.116;2023-04-06T11:30:55;17.50;29.80
24164;DHT22;12319;49.204;8.116;2023-04-06T11:33:21;17.50;29.10
24164;DHT22;12319;49.204;8.116;2023-04-06T11:35:49;17.40;29.40
24164;DHT22;12319;49.204;8.116;2023-04-06T11:38:18;17.50;29.50
24164;DHT22;12319;49.204;8.116;2023-04-06T11:40:44;17.50;28.60
24164;DHT22;12319;49.204;8.116;2023-04-06T11:43:11;17.60;28.90
24164;DHT22;12319;49.204;8.116;2023-04-06T11:45:43;17.70;29.20
24164;DHT22;12319;49.204;8.116;2023-04-06T11:48:18;17.70;28.40
24164;DHT22;12319;49.204;8.116;2023-04-06T11:50:46;17.70;28.70
24164;DHT22;12319;49.204;8.116;2023-04-06T11:53:12;17.60;29.30
24164;DHT22;12319;49.204;8.116;2023-04-06T11:55:38;17.70;29.70
24164;DHT22;12319;49.204;8.116;2023-04-06T11:58:04;17.80;29.30
24164;DHT22;12319;49.204;8.116;2023-04-06T12:00:30;17.90;28.90
24164;DHT22;12319;49.204;8.116;2023-04-06T12:03:00;18.00;28.90
24164;DHT22;12319;49.204;8.116;2023-04-06T12:05:26;18.10;29.80
24164;DHT22;12319;49.204;8.116;2023-04-06T12:07:51;18.20;29.60
24164;DHT22;12319;49.204;8.116;2023-04-06T12:10:17;18.20;28.80
24164;DHT22;12319;49.204;8.116;2023-04-06T12:12:42;18.30;28.20
24164;DHT22;12319;49.204;8.116;2023-04-06T12:15:08;18.30;27.90
24164;DHT22;12319;49.204;8.116;2023-04-06T12:17:34;18.30;28.60
24164;DHT22;12319;49.204;8.116;2023-04-06T12:20:00;18.20;29.00
24164;DHT22;12319;49.204;8.116;2023-04-06T12:22:25;18.30;28.70
24164;DHT22;12319;49.204;8.116;2023-04-06T12:24:51;18.30;28.60
24164;DHT22;12319;49.204;8.116;2023-04-06T12:27:16;18.30;28.00
24164;DHT22;12319;49.204;8.116;2023-04-06T12:29:42;18.20;28.70
24164;DHT22;12319;49.204;8.116;2023-04-06T12:32:08;18.20;29.30
24164;DHT22;12319;49.204;8.116;2023-04-06T12:34:33;18.20;29.10
24164;DHT22;12319;49.204;8.116;2023-04-06T12:36:59;18.30;28.70
24164;DHT22;12319;49.204;8.116;2023-04-06T12:39:26;18.30;28.70
24164;DHT22;12319;49.204;8.116;2023-04-06T12:41:52;18.40;29.00
24164;DHT22;12319;49.204;8.116;2023-04-06T12:44:18;18.40;29.10
24164;DHT22;12319;49.204;8.116;2023-04-06T12:46:43;18.40;29.50
24164;DHT22;12319;49.204;8.116;2023-04-06T12:49:10;18.40;29.20
24164;DHT22;12319;49.204;8.116;2023-04-06T12:51:36;18.40;29.40
24164;DHT22;12319;49.204;8.116;2023-04-06T12:54:02;18.30;29.50
24164;DHT22;12319;49.204;8.116;2023-04-06T12:56:27;18.40;29.60
24164;DHT22;12319;49.204;8.116;2023-04-06T12:58:53;18.50;29.80
24164;DHT22;12319;49.204;8.116;2023-04-06T13:01:18;18.80;29.40
24164;DHT22;12319;49.204;8.116;2023-04-06T13:03:45;18.90;29.50
24164;DHT22;12319;49.204;8.116;2023-04-06T13:06:10;19.10;29.10
24164;DHT22;12319;49.204;8.116;2023-04-06T13:08:37;19.20;29.50
24164;DHT22;12319;49.204;8.116;2023-04-06T13:11:03;19.30;29.80
24164;DHT22;12319;49.204;8.116;2023-04-06T13:13:29;19.40;29.70
24164;DHT22;12319;49.204;8.116;2023-04-06T13:16:01;19.40;29.00
24164;DHT22;12319;49.204;8.116;2023-04-06T13:18:28;19.30;28.90
24164;DHT22;12319;49.204;8.116;2023-04-06T13:20:55;19.20;29.20
24164;DHT22;12319;49.204;8.116;2023-04-06T13:23:21;19.10;29.40
24164;DHT22;12319;49.204;8.116;2023-04-06T13:25:47;19.00;29.50
24164;DHT22;12319;49.204;8.116;2023-04-06T13:28:13;18.80;29.00
24164;DHT22;12319;49.204;8.116;2023-04-06T13:30:39;18.70;29.50
24164;DHT22;12319;49.204;8.116;2023-04-06T13:33:05;18.70;29.20
24164;DHT22;12319;49.204;8.116;2023-04-06T13:35:31;18.60;29.70
24164;DHT22;12319;49.204;8.116;2023-04-06T13:37:57;18.50;30.00
24164;DHT22;12319;49.204;8.116;2023-04-06T13:40:23;18.50;29.30
24164;DHT22;12319;49.204;8.116;2023-04-06T13:42:48;18.40;29.90
24164;DHT22;12319;49.204;8.116;2023-04-06T13:45:14;18.30;30.10
24164;DHT22;12319;49.204;8.116;2023-04-06T13:47:40;18.20;29.70
24164;DHT22;12319;49.204;8.116;2023-04-06T13:50:06;18.10;30.00
24164;DHT22;12319;49.204;8.116;2023-04-06T13:52:31;17.90;30.00
24164;DHT22;12319;49.204;8.116;2023-04-06T13:54:57;17.90;30.00
24164;DHT22;12319;49.204;8.116;2023-04-06T13:57:23;17.70;30.60
24164;DHT22;12319;49.204;8.116;2023-04-06T13:59:48;17.70;30.30
24164;DHT22;12319;49.204;8.116;2023-04-06T14:02:15;17.60;30.80
24164;DHT22;12319;49.204;8.116;2023-04-06T14:04:41;17.50;31.10
24164;DHT22;12319;49.204;8.116;2023-04-06T14:07:07;17.50;31.10
24164;DHT22;12319;49.204;8.116;2023-04-06T14:09:33;17.50;31.30
24164;DHT22;12319;49.204;8.116;2023-04-06T14:11:59;17.30;31.40
24164;DHT22;12319;49.204;8.116;2023-04-06T14:14:25;17.30;31.50
24164;DHT22;12319;49.204;8.116;2023-04-06T14:16:51;17.20;31.40
24164;DHT22;12319;49.204;8.116;2023-04-06T14:19:17;17.10;32.00
24164;DHT22;12319;49.204;8.116;2023-04-06T14:21:44;17.00;32.20
24164;DHT22;12319;49.204;8.116;2023-04-06T14:24:10;16.90;32.50
24164;DHT22;12319;49.204;8.116;2023-04-06T14:26:37;17.00;32.70
24164;DHT22;12319;49.204;8.116;2023-04-06T14:29:05;16.80;32.70
24164;DHT22;12319;49.204;8.116;2023-04-06T14:31:32;16.80;32.80
24164;DHT22;12319;49.204;8.116;2023-04-06T14:34:00;16.70;33.00
24164;DHT22;12319;49.204;8.116;2023-04-06T14:36:26;16.70;33.20
24164;DHT22;12319;49.204;8.116;2023-04-06T14:38:58;16.70;33.20
24164;DHT22;12319;49.204;8.116;2023-04-06T14:41:24;16.70;33.20
24164;DHT22;12319;49.204;8.116;2023-04-06T14:43:52;16.70;33.80
24164;DHT22;12319;49.204;8.116;2023-04-06T14:46:18;16.60;33.80
24164;DHT22;12319;49.204;8.116;2023-04-06T14:48:47;16.60;34.00
24164;DHT22;12319;49.204;8.116;2023-04-06T14:51:13;16.50;34.10
24164;DHT22;12319;49.204;8.116;2023-04-06T14:53:38;16.50;34.40
24164;DHT22;12319;49.204;8.116;2023-04-06T14:56:04;16.50;34.50
24164;DHT22;12319;49.204;8.116;2023-04-06T14:58:30;16.50;34.60
24164;DHT22;12319;49.204;8.116;2023-04-06T15:00:57;16.50;35.00
24164;DHT22;12319;49.204;8.116;2023-04-06T15:03:26;16.50;35.00
24164;DHT22;12319;49.204;8.116;2023-04-06T15:05:56;16.40;35.00
24164;DHT22;12319;49.204;8.116;2023-04-06T15:08:22;16.40;35.20
24164;DHT22;12319;49.204;8.116;2023-04-06T15:10:49;16.30;35.10
24164;DHT22;12319;49.204;8.116;2023-04-06T15:13:15;16.40;35.30
24164;DHT22;12319;49.204;8.116;2023-04-06T15:15:41;16.30;35.30
24164;DHT22;12319;49.204;8.116;2023-04-06T15:18:08;16.20;35.20
24164;DHT22;12319;49.204;8.116;2023-04-06T15:20:33;16.20;35.50
24164;DHT22;12319;49.204;8.116;2023-04-06T15:23:01;16.20;35.50
24164;DHT22;12319;49.204;8.116;2023-04-06T15:25:27;16.10;35.80
24164;DHT22;12319;49.204;8.116;2023-04-06T15:27:54;16.10;35.90
24164;DHT22;12319;49.204;8.116;2023-04-06T15:30:20;16.00;35.90
24164;DHT22;12319;49.204;8.116;2023-04-06T15:32:57;16.00;36.20
24164;DHT22;12319;49.204;8.116;2023-04-06T15:35:23;15.90;36.30
24164;DHT22;12319;49.204;8.116;2023-04-06T15:37:48;15.90;36.20